Time;durP1;ratioP1;P1;durP2;ratioP2;P2;SDS_P1;SDS_P2;PMS_P1;PMS_P2;Temp;Humidity;BMP_temperature;BMP_pressure;BME280_temperature;BME280_humidity;BME280_pressure;Samples;Min_cycle;Max_cycle;Signal;HPM_P1;HPM_P2
2020/12/18 00:02:18;;;;;;;;;;;6.60;99.90;;;;;;5072973;28;19944;-64
2020/12/18 00:04:46;;;;;;;;;;;6.70;99.90;;;;;;5062884;28;19955;-65
2020/12/18 00:07:11;;;;;;;;;;;6.70;99.90;;;;;;5073038;28;19994;-64
2020/12/18 00:09:37;;;;;;;;;;;6.60;99.90;;;;;;5062083;28;20400;-64
2020/12/18 00:12:02;;;;;;;;;;;6.70;99.90;;;;;;5072912;28;19912;-64
2020/12/18 00:14:28;;;;;;;;;;;6.60;99.90;;;;;;5070719;28;20376;-64
2020/12/18 00:16:53;;;;;;;;;;;6.70;99.90;;;;;;5071751;28;19990;-65
2020/12/18 00:19:19;;;;;;;;;;;6.60;99.90;;;;;;5068230;28;20418;-64
2020/12/18 00:21:44;;;;;;;;;;;6.70;99.90;;;;;;5088063;28;19915;-64
2020/12/18 00:24:10;;;;;;;;;;;6.80;99.90;;;;;;5064208;28;19909;-64
2020/12/18 00:26:35;;;;;;;;;;;6.80;99.90;;;;;;5070061;28;20372;-65
2020/12/18 00:29:02;;;;;;;;;;;6.70;99.90;;;;;;5065785;28;19916;-64
2020/12/18 00:31:27;;;;;;;;;;;6.70;99.90;;;;;;5071906;28;19904;-64
2020/12/18 00:33:53;;;;;;;;;;;6.80;99.90;;;;;;5065709;28;20427;-64
2020/12/18 00:36:18;;;;;;;;;;;6.70;99.90;;;;;;5072244;28;19904;-64
2020/12/18 00:38:44;;;;;;;;;;;6.60;99.90;;;;;;5065617;28;19917;-64
2020/12/18 00:41:12;;;;;;;;;;;6.50;99.90;;;;;;5072119;28;19926;-64
2020/12/18 00:43:38;;;;;;;;;;;6.70;99.90;;;;;;5068535;28;19908;-64
2020/12/18 00:46:04;;;;;;;;;;;6.70;99.90;;;;;;5068552;28;19905;-64
2020/12/18 00:48:30;;;;;;;;;;;6.60;99.90;;;;;;5066612;28;19915;-64
2020/12/18 00:50:55;;;;;;;;;;;6.70;99.90;;;;;;5071999;28;20296;-64
2020/12/18 00:53:21;;;;;;;;;;;6.60;99.90;;;;;;5066969;28;19932;-64
2020/12/18 00:55:46;;;;;;;;;;;6.60;99.90;;;;;;5071233;28;20303;-64
2020/12/18 00:58:12;;;;;;;;;;;6.70;99.90;;;;;;5067498;28;19913;-64
2020/12/18 01:00:37;;;;;;;;;;;6.60;99.90;;;;;;5072565;28;20328;-64
2020/12/18 01:03:03;;;;;;;;;;;6.70;99.90;;;;;;5068824;28;19930;-64
2020/12/18 01:05:28;;;;;;;;;;;6.80;99.90;;;;;;5068303;28;20352;-64
2020/12/18 01:07:54;;;;;;;;;;;6.80;99.90;;;;;;5069597;28;19916;-65
2020/12/18 01:10:19;;;;;;;;;;;6.90;99.90;;;;;;5063745;28;19963;-64
2020/12/18 01:12:48;;;;;;;;;;;6.90;99.90;;;;;;5069727;28;19924;-64
2020/12/18 01:15:14;;;;;;;;;;;6.90;99.90;;;;;;5061804;28;19912;-65
2020/12/18 01:17:40;;;;;;;;;;;7.00;99.90;;;;;;5069799;28;19908;-65
2020/12/18 01:20:05;;;;;;;;;;;6.90;99.90;;;;;;5066756;28;20372;-64
2020/12/18 01:22:31;;;;;;;;;;;7.00;99.90;;;;;;5070367;28;19911;-64
2020/12/18 01:24:56;;;;;;;;;;;7.10;99.90;;;;;;5065680;28;20357;-64
2020/12/18 01:27:22;;;;;;;;;;;7.00;99.90;;;;;;5071062;28;19904;-64
2020/12/18 01:29:47;;;;;;;;;;;7.00;99.90;;;;;;5064696;28;19912;-65
2020/12/18 01:32:13;;;;;;;;;;;6.90;99.90;;;;;;5071274;28;19912;-64
2020/12/18 01:34:39;;;;;;;;;;;7.00;99.90;;;;;;5065224;28;19917;-64
2020/12/18 01:37:04;;;;;;;;;;;6.90;99.90;;;;;;5071134;28;20531;-64
2020/12/18 01:39:30;;;;;;;;;;;6.90;99.90;;;;;;5064509;28;20255;-64
2020/12/18 01:41:55;;;;;;;;;;;6.90;99.90;;;;;;5070296;28;19966;-64
2020/12/18 01:44:21;;;;;;;;;;;6.90;99.90;;;;;;5057281;28;19909;-64
2020/12/18 01:46:47;;;;;;;;;;;7.00;99.90;;;;;;5055332;28;20356;-64
2020/12/18 01:49:12;;;;;;;;;;;7.00;99.90;;;;;;5065367;28;19913;-64
2020/12/18 01:51:38;;;;;;;;;;;6.90;99.90;;;;;;5066167;28;20287;-64
2020/12/18 01:54:04;;;;;;;;;;;7.00;99.90;;;;;;5064791;28;19943;-64
2020/12/18 01:56:30;;;;;;;;;;;7.00;99.90;;;;;;5070739;28;19908;-64
2020/12/18 01:58:56;;;;;;;;;;;7.00;99.90;;;;;;5064931;28;19928;-64
2020/12/18 02:01:22;;;;;;;;;;;7.00;99.90;;;;;;5058192;28;19908;-64
2020/12/18 02:03:47;;;;;;;;;;;7.00;99.90;;;;;;5063761;28;19965;-64
2020/12/18 02:06:17;;;;;;;;;;;7.00;99.90;;;;;;5067396;28;19950;-64
2020/12/18 02:08:44;;;;;;;;;;;7.00;99.90;;;;;;5067599;28;20292;-64
2020/12/18 02:11:10;;;;;;;;;;;7.10;99.90;;;;;;5061977;28;19965;-64
2020/12/18 02:13:36;;;;;;;;;;;7.10;99.90;;;;;;5063954;28;19913;-64
2020/12/18 02:16:01;;;;;;;;;;;7.10;99.90;;;;;;5070229;28;19915;-64
2020/12/18 02:18:27;;;;;;;;;;;7.10;99.90;;;;;;5064113;28;19920;-64
2020/12/18 02:20:53;;;;;;;;;;;7.00;99.90;;;;;;5070156;28;19915;-64
2020/12/18 02:23:18;;;;;;;;;;;7.10;99.90;;;;;;5067157;28;19941;-64
2020/12/18 02:25:44;;;;;;;;;;;7.00;99.90;;;;;;5063868;28;19904;-64
2020/12/18 02:28:10;;;;;;;;;;;7.10;99.90;;;;;;5066851;28;19999;-65
2020/12/18 02:30:36;;;;;;;;;;;7.10;99.90;;;;;;5058038;28;19908;-64
2020/12/18 02:33:06;;;;;;;;;;;7.10;99.90;;;;;;5065301;28;19915;-64
2020/12/18 02:35:31;;;;;;;;;;;7.00;99.90;;;;;;5063514;28;19904;-64
2020/12/18 02:37:57;;;;;;;;;;;7.10;99.90;;;;;;5067888;28;19959;-64
2020/12/18 02:40:23;;;;;;;;;;;7.10;99.90;;;;;;5065639;28;19912;-64
2020/12/18 02:42:48;;;;;;;;;;;7.10;99.90;;;;;;5068208;28;19912;-64
2020/12/18 02:45:14;;;;;;;;;;;7.10;99.90;;;;;;5065698;28;19905;-64
2020/12/18 02:47:39;;;;;;;;;;;7.20;99.90;;;;;;5068522;28;19981;-64
2020/12/18 02:50:05;;;;;;;;;;;7.30;99.90;;;;;;5060994;28;19909;-64
2020/12/18 02:52:30;;;;;;;;;;;7.30;99.90;;;;;;5068422;28;19936;-64
2020/12/18 02:54:56;;;;;;;;;;;7.20;99.90;;;;;;5068470;28;20314;-64
2020/12/18 02:57:21;;;;;;;;;;;7.20;99.90;;;;;;5056192;28;20279;-64
2020/12/18 02:59:47;;;;;;;;;;;7.30;99.90;;;;;;5067425;28;20364;-64
2020/12/18 03:02:12;;;;;;;;;;;7.30;99.90;;;;;;5074041;28;19949;-64
2020/12/18 03:04:38;;;;;;;;;;;7.30;99.90;;;;;;5067432;28;19908;-64
2020/12/18 03:07:04;;;;;;;;;;;7.40;99.90;;;;;;5073798;28;20033;-64
2020/12/18 03:09:29;;;;;;;;;;;7.30;99.90;;;;;;5067136;28;19916;-64
2020/12/18 03:11:55;;;;;;;;;;;7.20;99.90;;;;;;5072469;28;20421;-64
2020/12/18 03:14:20;;;;;;;;;;;7.30;99.90;;;;;;5067321;28;19908;-64
2020/12/18 03:16:46;;;;;;;;;;;7.30;99.90;;;;;;5068688;28;19904;-65
2020/12/18 03:19:11;;;;;;;;;;;7.30;99.90;;;;;;5063723;28;20328;-65
2020/12/18 03:21:37;;;;;;;;;;;7.40;99.90;;;;;;5067779;28;20352;-64
2020/12/18 03:24:02;;;;;;;;;;;7.40;99.90;;;;;;5068691;28;20257;-64
2020/12/18 03:26:28;;;;;;;;;;;7.20;99.90;;;;;;5069950;28;19904;-64
2020/12/18 03:28:54;;;;;;;;;;;7.30;99.90;;;;;;5067500;28;20338;-65
2020/12/18 03:31:19;;;;;;;;;;;7.20;99.90;;;;;;5068891;28;20581;-64
2020/12/18 03:33:45;;;;;;;;;;;7.20;99.90;;;;;;5066959;28;19917;-64
2020/12/18 03:36:10;;;;;;;;;;;7.30;99.90;;;;;;5073535;28;20425;-64
2020/12/18 03:38:36;;;;;;;;;;;7.30;99.90;;;;;;5082117;28;19923;-64
2020/12/18 03:41:04;;;;;;;;;;;7.40;99.90;;;;;;5072162;28;19904;-64
2020/12/18 03:43:29;;;;;;;;;;;7.20;99.90;;;;;;5070873;28;19914;-64
2020/12/18 03:45:55;;;;;;;;;;;7.10;99.90;;;;;;5062006;28;20354;-64
2020/12/18 03:48:20;;;;;;;;;;;7.20;99.90;;;;;;5070102;28;20018;-64
2020/12/18 03:50:46;;;;;;;;;;;7.30;99.90;;;;;;5065931;28;19987;-64
2020/12/18 03:53:11;;;;;;;;;;;7.20;99.90;;;;;;5069275;28;19912;-64
2020/12/18 03:55:37;;;;;;;;;;;7.10;99.90;;;;;;5070277;28;19952;-65
2020/12/18 03:58:02;;;;;;;;;;;7.10;99.90;;;;;;5070500;28;20025;-64
2020/12/18 04:00:28;;;;;;;;;;;7.20;99.90;;;;;;5069204;28;20413;-64
2020/12/18 04:02:53;;;;;;;;;;;7.20;99.90;;;;;;5071038;28;20423;-64
2020/12/18 04:05:19;;;;;;;;;;;7.30;99.90;;;;;;5067207;28;19951;-64
2020/12/18 04:07:44;;;;;;;;;;;7.20;99.90;;;;;;5070797;28;20287;-65
2020/12/18 04:10:10;;;;;;;;;;;7.20;99.90;;;;;;5068240;28;19917;-64
2020/12/18 04:12:35;;;;;;;;;;;7.20;99.90;;;;;;5070713;28;19916;-64
2020/12/18 04:15:01;;;;;;;;;;;7.30;99.90;;;;;;5063417;28;19911;-64
2020/12/18 04:17:27;;;;;;;;;;;7.30;99.90;;;;;;5071457;28;19904;-64
2020/12/18 04:19:52;;;;;;;;;;;7.10;99.90;;;;;;5066902;28;19923;-64
2020/12/18 04:22:18;;;;;;;;;;;7.00;99.90;;;;;;5068403;28;19915;-65
2020/12/18 04:24:43;;;;;;;;;;;7.00;99.90;;;;;;5066006;28;20033;-64
2020/12/18 04:27:09;;;;;;;;;;;7.00;99.90;;;;;;5072512;28;19999;-64
2020/12/18 04:29:34;;;;;;;;;;;6.90;99.90;;;;;;5065845;28;20463;-65
2020/12/18 04:32:00;;;;;;;;;;;7.10;99.90;;;;;;5072442;28;20345;-65
2020/12/18 04:34:25;;;;;;;;;;;7.10;99.90;;;;;;5065730;28;19912;-64
2020/12/18 04:36:51;;;;;;;;;;;7.20;99.90;;;;;;5072304;28;19905;-65
2020/12/18 04:39:16;;;;;;;;;;;7.20;99.90;;;;;;5065485;28;19916;-64
2020/12/18 04:41:42;;;;;;;;;;;7.20;99.90;;;;;;5070967;28;20356;-65
2020/12/18 04:44:08;;;;;;;;;;;7.00;99.90;;;;;;5069932;28;19908;-64
2020/12/18 04:46:35;;;;;;;;;;;7.20;99.90;;;;;;5070721;28;19904;-64
2020/12/18 04:49:00;;;;;;;;;;;7.10;99.90;;;;;;5065378;28;20368;-65
2020/12/18 04:51:26;;;;;;;;;;;7.10;99.90;;;;;;5058957;28;19904;-65
2020/12/18 04:53:53;;;;;;;;;;;6.90;99.90;;;;;;5067033;28;19912;-65
2020/12/18 04:56:25;;;;;;;;;;;7.00;99.90;;;;;;5066189;28;19908;-64
2020/12/18 04:58:54;;;;;;;;;;;6.90;99.90;;;;;;5051685;28;20347;-67
2020/12/18 05:01:21;;;;;;;;;;;6.90;99.90;;;;;;5070874;28;19912;-64
2020/12/18 05:03:46;;;;;;;;;;;7.00;99.90;;;;;;5068877;28;19916;-64
2020/12/18 05:06:12;;;;;;;;;;;7.00;99.90;;;;;;5069863;28;19904;-64
2020/12/18 05:08:38;;;;;;;;;;;7.00;99.90;;;;;;5067290;28;19916;-64
2020/12/18 05:11:18;;;;;;;;;;;7.10;99.90;;;;;;5069000;28;19916;-64
2020/12/18 05:13:44;;;;;;;;;;;6.90;99.90;;;;;;5061927;28;20380;-62
2020/12/18 05:16:10;;;;;;;;;;;7.40;99.90;;;;;;5067215;28;19914;-62
2020/12/18 05:18:36;;;;;;;;;;;7.30;99.90;;;;;;5069430;28;20007;-61
2020/12/18 05:21:02;;;;;;;;;;;7.20;99.90;;;;;;5070425;28;20004;-62
2020/12/18 05:23:27;;;;;;;;;;;7.20;99.90;;;;;;5069020;28;19970;-62
2020/12/18 05:25:53;;;;;;;;;;;7.10;99.90;;;;;;5071050;28;19910;-62
2020/12/18 05:28:19;;;;;;;;;;;6.90;99.90;;;;;;5066618;28;19908;-62
2020/12/18 05:30:46;;;;;;;;;;;6.90;99.90;;;;;;5060419;28;19959;-62
2020/12/18 05:33:12;;;;;;;;;;;7.00;99.90;;;;;;5060661;28;19954;-62
2020/12/18 05:35:38;;;;;;;;;;;6.90;99.90;;;;;;5060143;28;20459;-62
2020/12/18 05:38:04;;;;;;;;;;;7.00;99.90;;;;;;5053762;28;19909;-63
2020/12/18 05:40:29;;;;;;;;;;;6.80;99.90;;;;;;5060185;28;19905;-62
2020/12/18 05:42:55;;;;;;;;;;;6.80;99.90;;;;;;5058313;28;19908;-68
2020/12/18 05:45:22;;;;;;;;;;;6.80;99.90;;;;;;5068217;28;20010;-62
2020/12/18 05:47:58;;;;;;;;;;;6.60;99.90;;;;;;5069495;28;19965;-63
2020/12/18 05:50:31;;;;;;;;;;;6.50;99.90;;;;;;5059944;28;19908;-62
2020/12/18 05:52:58;;;;;;;;;;;6.60;99.90;;;;;;5066770;28;19963;-62
2020/12/18 05:55:23;;;;;;;;;;;6.60;99.90;;;;;;5059951;28;19949;-63
2020/12/18 05:57:49;;;;;;;;;;;6.40;99.90;;;;;;5052142;28;20474;-63
2020/12/18 06:00:15;;;;;;;;;;;6.60;99.90;;;;;;5061197;28;20067;-63
2020/12/18 06:02:43;;;;;;;;;;;6.50;99.90;;;;;;5051415;28;20018;-63
2020/12/18 06:05:08;;;;;;;;;;;6.60;99.90;;;;;;5061603;28;19905;-63
2020/12/18 06:07:39;;;;;;;;;;;6.40;99.90;;;;;;5065920;28;19915;-62
2020/12/18 06:10:05;;;;;;;;;;;6.50;99.90;;;;;;5059313;28;19923;-62
2020/12/18 06:12:30;;;;;;;;;;;6.40;99.90;;;;;;5070592;28;20272;-62
2020/12/18 06:14:56;;;;;;;;;;;6.50;99.90;;;;;;5062015;28;20332;-63
2020/12/18 06:17:26;;;;;;;;;;;6.40;99.90;;;;;;5068924;28;19912;-63
2020/12/18 06:19:55;;;;;;;;;;;6.30;99.90;;;;;;5061946;28;20011;-64
2020/12/18 06:22:21;;;;;;;;;;;6.30;99.90;;;;;;5050671;28;19911;-64
2020/12/18 06:24:46;;;;;;;;;;;6.10;99.90;;;;;;5061920;28;19908;-64
2020/12/18 06:27:12;;;;;;;;;;;6.30;99.90;;;;;;5050397;28;19909;-64
2020/12/18 06:29:38;;;;;;;;;;;6.30;99.90;;;;;;5061633;28;19909;-64
2020/12/18 06:32:23;;;;;;;;;;;6.00;99.90;;;;;;5050773;28;19905;-64
2020/12/18 06:34:48;;;;;;;;;;;6.10;99.90;;;;;;5061565;28;19912;-64
2020/12/18 06:37:27;;;;;;;;;;;6.20;99.90;;;;;;5050452;28;19912;-64
2020/12/18 06:39:52;;;;;;;;;;;6.10;99.90;;;;;;5061607;28;19922;-64
2020/12/18 06:42:25;;;;;;;;;;;5.90;99.90;;;;;;5050379;28;20002;-64
2020/12/18 06:44:51;;;;;;;;;;;6.10;99.90;;;;;;5058923;28;19912;-64
2020/12/18 06:47:37;;;;;;;;;;;5.80;99.90;;;;;;5070539;28;19966;-64
2020/12/18 06:50:10;;;;;;;;;;;5.80;99.90;;;;;;5068202;28;19930;-64
2020/12/18 06:52:43;;;;;;;;;;;5.80;99.90;;;;;;5066839;28;19912;-63
2020/12/18 06:55:27;;;;;;;;;;;5.70;99.90;;;;;;5074141;28;19961;-68
2020/12/18 06:58:04;;;;;;;;;;;5.60;99.90;;;;;;5066292;28;19919;-64
2020/12/18 07:00:30;;;;;;;;;;;5.90;99.90;;;;;;5068849;28;19920;-63
2020/12/18 07:02:56;;;;;;;;;;;6.00;99.90;;;;;;5067777;28;19919;-62
2020/12/18 07:05:29;;;;;;;;;;;5.80;99.90;;;;;;5069484;28;19904;-63
2020/12/18 07:07:56;;;;;;;;;;;5.70;99.90;;;;;;5067575;28;20323;-63
2020/12/18 07:10:25;;;;;;;;;;;5.90;99.90;;;;;;5051256;28;19920;-63
2020/12/18 07:12:50;;;;;;;;;;;5.70;99.90;;;;;;5067787;28;19926;-63
2020/12/18 07:15:16;;;;;;;;;;;5.70;99.90;;;;;;5069291;28;19904;-63
2020/12/18 07:17:49;;;;;;;;;;;5.60;99.90;;;;;;5069120;28;20008;-63
2020/12/18 07:20:15;;;;;;;;;;;5.80;99.90;;;;;;5066099;28;19913;-62
2020/12/18 07:22:40;;;;;;;;;;;5.60;99.90;;;;;;5067962;28;20379;-62
2020/12/18 07:25:12;;;;;;;;;;;5.70;99.90;;;;;;5063955;28;19904;-63
2020/12/18 07:27:38;;;;;;;;;;;5.80;99.90;;;;;;5068301;28;19912;-64
2020/12/18 07:30:10;;;;;;;;;;;5.80;99.90;;;;;;5065996;28;19912;-64
2020/12/18 07:32:36;;;;;;;;;;;5.70;99.90;;;;;;5068968;28;19904;-64
2020/12/18 07:35:03;;;;;;;;;;;5.60;99.90;;;;;;5063919;28;19905;-64
2020/12/18 07:37:29;;;;;;;;;;;5.50;99.90;;;;;;5069685;28;20000;-64
2020/12/18 07:39:57;;;;;;;;;;;5.70;99.90;;;;;;5062908;28;19931;-65
2020/12/18 07:42:23;;;;;;;;;;;5.70;99.90;;;;;;5072271;28;19915;-65
2020/12/18 07:45:01;;;;;;;;;;;5.80;99.90;;;;;;5069577;28;19908;-65
2020/12/18 07:47:26;;;;;;;;;;;5.70;99.90;;;;;;5070836;28;19905;-64
2020/12/18 07:49:52;;;;;;;;;;;5.90;99.90;;;;;;5065224;28;19908;-64
2020/12/18 07:52:22;;;;;;;;;;;5.90;99.90;;;;;;5070382;28;20410;-64
2020/12/18 07:54:53;;;;;;;;;;;5.70;99.90;;;;;;5069848;28;19912;-64
2020/12/18 07:57:19;;;;;;;;;;;5.80;99.90;;;;;;5072898;28;20413;-64
2020/12/18 07:59:45;;;;;;;;;;;5.90;99.90;;;;;;5066607;28;19924;-63
2020/12/18 08:02:19;;;;;;;;;;;5.90;99.90;;;;;;5073125;28;20117;-62
2020/12/18 08:04:47;;;;;;;;;;;5.70;99.90;;;;;;5059484;28;19915;-63
2020/12/18 08:07:13;;;;;;;;;;;5.90;99.90;;;;;;5072744;28;19912;-63
2020/12/18 08:09:39;;;;;;;;;;;5.90;99.90;;;;;;5061073;28;19917;-63
2020/12/18 08:12:09;;;;;;;;;;;5.80;99.90;;;;;;5070900;28;19950;-63
2020/12/18 08:14:34;;;;;;;;;;;5.90;99.90;;;;;;5060690;28;19909;-63
2020/12/18 08:17:00;;;;;;;;;;;6.00;99.90;;;;;;5069402;28;19911;-63
2020/12/18 08:19:25;;;;;;;;;;;6.00;99.90;;;;;;5067856;28;19943;-63
2020/12/18 08:21:54;;;;;;;;;;;6.20;99.90;;;;;;5068995;28;19904;-63
2020/12/18 08:24:23;;;;;;;;;;;6.20;99.90;;;;;;5066920;28;19912;-63
2020/12/18 08:26:56;;;;;;;;;;;6.20;99.90;;;;;;5066974;28;20406;-63
2020/12/18 08:29:22;;;;;;;;;;;6.10;99.90;;;;;;5066122;28;20382;-63
2020/12/18 08:31:48;;;;;;;;;;;6.20;99.90;;;;;;5058796;28;19905;-63
2020/12/18 08:34:22;;;;;;;;;;;6.20;99.90;;;;;;5067986;28;19909;-63
2020/12/18 08:36:47;;;;;;;;;;;6.20;99.90;;;;;;5065009;28;20261;-63
2020/12/18 08:39:14;;;;;;;;;;;6.40;99.90;;;;;;5065581;28;19924;-63
2020/12/18 08:41:51;;;;;;;;;;;6.20;99.90;;;;;;5072460;28;19904;-63
2020/12/18 08:44:17;;;;;;;;;;;6.20;99.90;;;;;;5065753;28;19909;-63
2020/12/18 08:46:43;;;;;;;;;;;6.40;99.90;;;;;;5072532;28;19904;-63
2020/12/18 08:49:14;;;;;;;;;;;6.30;99.90;;;;;;5066078;28;19919;-63
2020/12/18 08:51:40;;;;;;;;;;;6.40;99.90;;;;;;5058232;28;20342;-63
2020/12/18 08:54:25;;;;;;;;;;;6.50;99.90;;;;;;5064850;28;19944;-63
2020/12/18 08:57:09;;;;;;;;;;;6.40;99.90;;;;;;5061179;28;19958;-63
2020/12/18 08:59:34;;;;;;;;;;;6.50;99.90;;;;;;5064214;28;19916;-63
2020/12/18 09:02:00;;;;;;;;;;;6.70;99.90;;;;;;5071922;28;20280;-63
2020/12/18 09:04:25;;;;;;;;;;;6.60;99.90;;;;;;5068317;28;20159;-63
2020/12/18 09:06:51;;;;;;;;;;;6.50;99.90;;;;;;5063459;28;20291;-63
2020/12/18 09:09:17;;;;;;;;;;;6.50;99.90;;;;;;5065034;28;19916;-63
2020/12/18 09:11:45;;;;;;;;;;;6.70;99.90;;;;;;5072310;28;19948;-63
2020/12/18 09:14:29;;;;;;;;;;;6.60;99.90;;;;;;5062730;28;19915;-63
2020/12/18 09:16:56;;;;;;;;;;;6.80;99.90;;;;;;5070274;28;20423;-63
2020/12/18 09:19:21;;;;;;;;;;;6.90;99.90;;;;;;5065739;28;20008;-63
2020/12/18 09:21:47;;;;;;;;;;;6.80;99.90;;;;;;5071220;28;19947;-63
2020/12/18 09:24:16;;;;;;;;;;;6.60;99.90;;;;;;5060011;28;20011;-63
2020/12/18 09:26:41;;;;;;;;;;;6.80;99.90;;;;;;5069275;28;19905;-63
2020/12/18 09:29:14;;;;;;;;;;;6.90;99.90;;;;;;5065223;28;20063;-63
2020/12/18 09:31:39;;;;;;;;;;;6.60;99.90;;;;;;5068019;28;20360;-63
2020/12/18 09:34:12;;;;;;;;;;;6.70;99.90;;;;;;5069116;28;19924;-63
2020/12/18 09:36:38;;;;;;;;;;;6.60;99.90;;;;;;5070320;28;19910;-63
2020/12/18 09:39:03;;;;;;;;;;;6.60;99.90;;;;;;5063007;28;19920;-63
2020/12/18 09:41:29;;;;;;;;;;;6.80;99.90;;;;;;5062455;28;19919;-63
2020/12/18 09:43:54;;;;;;;;;;;6.60;99.90;;;;;;5066569;28;19909;-63
2020/12/18 09:46:22;;;;;;;;;;;6.90;99.90;;;;;;5070689;28;19908;-63
2020/12/18 09:48:47;;;;;;;;;;;6.80;99.90;;;;;;5067700;28;20364;-63
2020/12/18 09:51:13;;;;;;;;;;;6.80;99.90;;;;;;5068663;28;19905;-63
2020/12/18 09:53:39;;;;;;;;;;;7.00;99.90;;;;;;5066744;28;19919;-63
2020/12/18 09:56:08;;;;;;;;;;;7.00;99.90;;;;;;5068000;28;19990;-63
2020/12/18 09:58:34;;;;;;;;;;;7.00;99.90;;;;;;5065535;28;19916;-62
2020/12/18 10:00:59;;;;;;;;;;;7.00;99.90;;;;;;5067535;28;19943;-61
2020/12/18 10:03:25;;;;;;;;;;;7.10;99.90;;;;;;5064290;28;20335;-62
2020/12/18 10:05:50;;;;;;;;;;;7.10;99.90;;;;;;5065349;28;19908;-62
2020/12/18 10:08:16;;;;;;;;;;;7.10;99.90;;;;;;5066925;28;19912;-61
2020/12/18 10:10:42;;;;;;;;;;;7.30;99.90;;;;;;5068346;28;20487;-61
2020/12/18 10:13:08;;;;;;;;;;;7.40;99.90;;;;;;5068587;28;20050;-61
2020/12/18 10:15:33;;;;;;;;;;;7.40;99.90;;;;;;5066994;28;19905;-62
2020/12/18 10:17:59;;;;;;;;;;;7.50;99.90;;;;;;5067330;28;20479;-61
2020/12/18 10:20:25;;;;;;;;;;;7.30;99.90;;;;;;5060299;28;19912;-62
2020/12/18 10:22:50;;;;;;;;;;;7.30;99.90;;;;;;5068369;28;19904;-61
2020/12/18 10:25:16;;;;;;;;;;;7.60;99.90;;;;;;5062708;28;19909;-62
2020/12/18 10:27:42;;;;;;;;;;;7.60;99.90;;;;;;5067219;28;19904;-62
2020/12/18 10:30:07;;;;;;;;;;;7.30;99.90;;;;;;5067631;28;20387;-65
2020/12/18 10:32:33;;;;;;;;;;;7.40;99.90;;;;;;5070578;28;19904;-62
2020/12/18 10:34:59;;;;;;;;;;;7.50;99.90;;;;;;5065183;28;20515;-62
2020/12/18 10:37:25;;;;;;;;;;;7.60;99.90;;;;;;5070030;28;19908;-63
2020/12/18 10:39:51;;;;;;;;;;;7.70;99.90;;;;;;5063591;28;19916;-62
2020/12/18 10:42:16;;;;;;;;;;;7.90;99.90;;;;;;5070172;28;19911;-63
2020/12/18 10:44:42;;;;;;;;;;;7.90;99.90;;;;;;5067104;28;19908;-63
2020/12/18 10:47:07;;;;;;;;;;;8.00;99.90;;;;;;5070364;28;19905;-63
2020/12/18 10:49:33;;;;;;;;;;;8.00;99.90;;;;;;5063377;28;19909;-63
2020/12/18 10:51:59;;;;;;;;;;;8.00;99.90;;;;;;5068887;28;19904;-63
2020/12/18 10:54:24;;;;;;;;;;;8.10;99.90;;;;;;5063218;28;19962;-63
2020/12/18 10:56:56;;;;;;;;;;;8.10;99.90;;;;;;5070043;28;19951;-63
2020/12/18 10:59:22;;;;;;;;;;;8.20;99.90;;;;;;5062985;28;19917;-63
2020/12/18 11:01:51;;;;;;;;;;;8.30;99.90;;;;;;5070078;28;19904;-63
2020/12/18 11:04:17;;;;;;;;;;;8.30;99.90;;;;;;5063161;28;19915;-63
2020/12/18 11:06:42;;;;;;;;;;;8.50;99.90;;;;;;5070098;28;19904;-63
2020/12/18 11:09:08;;;;;;;;;;;8.60;99.90;;;;;;5062875;28;20403;-62
2020/12/18 11:11:33;;;;;;;;;;;9.00;99.90;;;;;;5062026;28;19912;-62
2020/12/18 11:13:59;;;;;;;;;;;8.90;99.90;;;;;;5050317;28;19908;-62
2020/12/18 11:16:25;;;;;;;;;;;9.10;99.90;;;;;;5071008;28;19911;-62
2020/12/18 11:18:50;;;;;;;;;;;9.30;99.90;;;;;;5068071;28;19913;-62
2020/12/18 11:21:16;;;;;;;;;;;9.20;99.90;;;;;;5072371;28;19965;-62
2020/12/18 11:23:41;;;;;;;;;;;9.20;99.90;;;;;;5067465;28;19920;-63
2020/12/18 11:26:07;;;;;;;;;;;9.20;99.90;;;;;;5067429;28;20384;-63
2020/12/18 11:28:33;;;;;;;;;;;9.40;99.90;;;;;;5083807;28;20007;-63
2020/12/18 11:31:01;;;;;;;;;;;9.40;99.90;;;;;;5065255;28;19905;-64
2020/12/18 11:33:27;;;;;;;;;;;9.50;99.90;;;;;;5070266;28;19913;-63
2020/12/18 11:35:53;;;;;;;;;;;9.50;99.90;;;;;;5062326;28;19904;-63
2020/12/18 11:38:19;;;;;;;;;;;9.60;99.90;;;;;;5069102;28;19916;-64
2020/12/18 11:40:44;;;;;;;;;;;9.40;99.90;;;;;;5070492;28;19904;-63
2020/12/18 11:43:10;;;;;;;;;;;9.60;99.90;;;;;;5087170;28;19922;-63
2020/12/18 11:45:35;;;;;;;;;;;9.60;99.90;;;;;;5069854;28;19908;-62
2020/12/18 11:48:03;;;;;;;;;;;9.60;99.90;;;;;;5070801;28;19912;-63
2020/12/18 11:50:28;;;;;;;;;;;9.70;99.90;;;;;;5071820;28;19908;-63
2020/12/18 11:52:56;;;;;;;;;;;9.70;99.90;;;;;;5070692;28;20326;-63
2020/12/18 11:55:21;;;;;;;;;;;9.80;99.90;;;;;;5070985;28;19915;-63
2020/12/18 11:57:47;;;;;;;;;;;9.90;99.90;;;;;;5071771;28;19905;-63
2020/12/18 12:00:12;;;;;;;;;;;10.00;99.90;;;;;;5067908;28;19955;-63
2020/12/18 12:02:38;;;;;;;;;;;10.10;99.90;;;;;;5072624;28;20357;-63
2020/12/18 12:05:03;;;;;;;;;;;10.00;99.90;;;;;;5058650;28;19935;-63
2020/12/18 12:07:30;;;;;;;;;;;10.10;99.90;;;;;;5071141;28;19931;-63
2020/12/18 12:09:56;;;;;;;;;;;10.30;99.90;;;;;;5046234;28;20507;-63
2020/12/18 12:12:22;;;;;;;;;;;10.20;99.90;;;;;;5071901;28;19908;-63
2020/12/18 12:14:47;;;;;;;;;;;10.40;99.90;;;;;;5067434;28;20330;-62
2020/12/18 12:17:13;;;;;;;;;;;10.30;99.90;;;;;;5072100;28;19944;-65
2020/12/18 12:19:38;;;;;;;;;;;10.50;99.90;;;;;;5066215;28;20372;-63
2020/12/18 12:22:04;;;;;;;;;;;10.50;99.90;;;;;;5070636;28;20377;-64
2020/12/18 12:24:29;;;;;;;;;;;10.60;99.90;;;;;;5065981;28;19985;-63
2020/12/18 12:26:55;;;;;;;;;;;10.60;99.90;;;;;;5065535;28;20042;-63
2020/12/18 12:29:20;;;;;;;;;;;10.70;99.90;;;;;;5066862;28;19912;-63
2020/12/18 12:31:46;;;;;;;;;;;10.90;99.90;;;;;;5069982;28;19959;-64
2020/12/18 12:34:11;;;;;;;;;;;10.80;99.90;;;;;;5069094;28;20372;-63
2020/12/18 12:36:37;;;;;;;;;;;10.90;99.90;;;;;;5071747;28;19918;-62
2020/12/18 12:39:02;;;;;;;;;;;11.00;99.90;;;;;;5069293;28;20441;-63
2020/12/18 12:41:28;;;;;;;;;;;10.90;99.90;;;;;;5071442;28;19913;-63
2020/12/18 12:43:53;;;;;;;;;;;11.00;99.90;;;;;;5064375;28;19932;-63
2020/12/18 12:46:23;;;;;;;;;;;11.00;99.90;;;;;;5070035;28;20351;-63
2020/12/18 12:48:49;;;;;;;;;;;11.20;99.90;;;;;;5067771;28;19908;-64
2020/12/18 12:51:15;;;;;;;;;;;11.20;99.90;;;;;;5052288;28;19935;-64
2020/12/18 12:53:41;;;;;;;;;;;11.20;99.90;;;;;;5064585;28;19905;-63
2020/12/18 12:56:07;;;;;;;;;;;11.40;99.90;;;;;;5070561;28;19908;-67
2020/12/18 12:58:32;;;;;;;;;;;11.60;99.90;;;;;;5050844;28;19912;-63
2020/12/18 13:00:58;;;;;;;;;;;11.50;99.90;;;;;;5068177;28;19991;-62
2020/12/18 13:03:24;;;;;;;;;;;11.40;99.90;;;;;;5065640;28;20296;-62
2020/12/18 13:05:49;;;;;;;;;;;11.50;99.90;;;;;;5068039;28;20361;-62
2020/12/18 13:08:15;;;;;;;;;;;11.50;99.90;;;;;;5066785;28;19904;-63
2020/12/18 13:10:41;;;;;;;;;;;11.40;99.90;;;;;;5067412;28;19912;-64
2020/12/18 13:13:07;;;;;;;;;;;11.50;99.90;;;;;;5067706;28;19908;-63
2020/12/18 13:15:32;;;;;;;;;;;11.60;99.90;;;;;;5066274;28;19908;-63
2020/12/18 13:17:58;;;;;;;;;;;11.70;99.90;;;;;;5069604;28;20304;-63
2020/12/18 13:20:23;;;;;;;;;;;11.90;99.90;;;;;;5067254;28;19917;-63
2020/12/18 13:22:49;;;;;;;;;;;12.00;99.90;;;;;;5069866;28;19904;-63
2020/12/18 13:25:16;;;;;;;;;;;12.40;99.90;;;;;;5068122;28;20406;-63
2020/12/18 13:27:42;;;;;;;;;;;12.20;99.90;;;;;;5070567;28;19904;-63
2020/12/18 13:30:08;;;;;;;;;;;12.30;99.90;;;;;;5067748;28;19928;-64
2020/12/18 13:32:33;;;;;;;;;;;12.30;99.90;;;;;;5070480;28;19905;-63
2020/12/18 13:34:59;;;;;;;;;;;12.60;99.90;;;;;;5062563;28;19995;-63
2020/12/18 13:37:24;;;;;;;;;;;12.60;99.90;;;;;;5061854;28;19991;-63
2020/12/18 13:39:50;;;;;;;;;;;12.70;99.90;;;;;;5066366;28;20027;-66
2020/12/18 13:42:17;;;;;;;;;;;13.40;99.90;;;;;;5070433;28;20332;-63
2020/12/18 13:44:43;;;;;;;;;;;14.00;99.90;;;;;;5065021;28;19911;-63
2020/12/18 13:47:09;;;;;;;;;;;14.30;99.90;;;;;;5069985;28;19912;-63
2020/12/18 13:49:34;;;;;;;;;;;14.20;99.90;;;;;;5063411;28;19915;-66
2020/12/18 13:52:00;;;;;;;;;;;14.30;99.90;;;;;;5068669;28;19908;-63
2020/12/18 13:54:25;;;;;;;;;;;14.10;99.90;;;;;;5061767;28;19908;-62
2020/12/18 13:56:51;;;;;;;;;;;13.90;99.90;;;;;;5069446;28;19920;-62
2020/12/18 13:59:16;;;;;;;;;;;13.70;99.90;;;;;;5063823;28;19915;-63
2020/12/18 14:01:44;;;;;;;;;;;13.60;99.90;;;;;;5069655;28;19997;-63
2020/12/18 14:04:11;;;;;;;;;;;13.80;99.90;;;;;;5062126;28;20387;-64
2020/12/18 14:06:36;;;;;;;;;;;13.60;99.90;;;;;;5070315;28;20529;-64
2020/12/18 14:09:03;;;;;;;;;;;13.80;99.90;;;;;;5061910;28;20290;-64
2020/12/18 14:11:29;;;;;;;;;;;13.50;99.90;;;;;;5059820;28;20005;-63
2020/12/18 14:13:54;;;;;;;;;;;14.00;99.90;;;;;;5064091;28;20029;-64
2020/12/18 14:16:20;;;;;;;;;;;14.30;99.90;;;;;;5085892;28;19904;-68
2020/12/18 14:18:45;;;;;;;;;;;14.70;99.90;;;;;;5063207;28;19916;-64
2020/12/18 14:21:11;;;;;;;;;;;14.80;99.90;;;;;;5070316;28;19983;-64
2020/12/18 14:23:37;;;;;;;;;;;14.80;99.90;;;;;;5064457;28;19909;-64
2020/12/18 14:26:02;;;;;;;;;;;14.50;99.90;;;;;;5069530;28;20030;-64